OAT Data

DateCelsiusFahrenheitHumidityLight Level
Feb 17, 2018 19:15-5.8 C21.6 F72.0 %6.9
Feb 17, 2018 19:10-5.9 C21.4 F71.0 %6.9
Feb 17, 2018 19:05-5.9 C21.4 F71.0 %6.9
Feb 17, 2018 19:00-5.9 C21.4 F70.0 %6.9
Feb 17, 2018 18:55-5.9 C21.4 F70.0 %6.9
Feb 17, 2018 18:50-5.9 C21.4 F70.0 %6.9
Feb 17, 2018 18:45-6.0 C21.2 F69.0 %6.9
Feb 17, 2018 18:40-6.1 C21.0 F69.0 %6.9
Feb 17, 2018 18:35-6.1 C21.0 F68.0 %6.9
Feb 17, 2018 18:30-6.1 C21.0 F68.0 %7.0
Feb 17, 2018 18:25-6.2 C20.8 F67.0 %7.3
Feb 17, 2018 18:20-6.2 C20.8 F67.0 %8.1
Feb 17, 2018 18:15-6.2 C20.8 F66.0 %10.1
Feb 17, 2018 18:10-6.2 C20.8 F66.0 %14.2
Feb 17, 2018 18:05-6.2 C20.8 F66.0 %20.6
Feb 17, 2018 18:00-6.2 C20.8 F65.0 %27.1
Feb 17, 2018 17:55-6.1 C21.0 F65.0 %32.6
Feb 17, 2018 17:50-5.9 C21.4 F64.0 %37.2
Feb 17, 2018 17:45-5.9 C21.4 F64.0 %41.0
Feb 17, 2018 17:40-6.0 C21.2 F63.0 %44.8
Feb 17, 2018 17:35-6.0 C21.2 F62.0 %46.8
Feb 17, 2018 17:30-5.9 C21.4 F62.0 %48.3
Feb 17, 2018 17:25-5.9 C21.4 F62.0 %49.3
Feb 17, 2018 17:20-5.9 C21.4 F61.0 %49.9
Feb 17, 2018 17:15-5.7 C21.7 F61.0 %50.7
Feb 17, 2018 17:10-5.6 C21.9 F60.0 %51.1
Feb 17, 2018 17:05-5.4 C22.3 F59.0 %51.4
Feb 17, 2018 17:00-5.3 C22.5 F58.0 %51.8
Feb 17, 2018 16:55-5.3 C22.5 F56.0 %51.9
Feb 17, 2018 16:50-5.3 C22.5 F55.0 %52.1
Feb 17, 2018 16:45-5.2 C22.6 F53.0 %52.2
Feb 17, 2018 16:40-5.3 C22.5 F52.0 %52.3
Feb 17, 2018 16:35-5.3 C22.5 F51.0 %52.3
Feb 17, 2018 16:30-5.2 C22.6 F51.0 %52.4
Feb 17, 2018 16:25-5.0 C23.0 F50.0 %52.4
Feb 17, 2018 16:20-5.1 C22.8 F49.0 %52.5
All dates are in Atlantic Time.
MinimumAverageMaximumStandard Deviation
Today's-11.3 C-7.958 C-4.2 C2.137 C
Friday's-4.1 C2.746 C6.1 C1.954 C
Thursday's-3.3 C1.390 C5.5 C2.947 C
Wednesday's-9.3 C-0.661 C4.0 C4.042 C
Tuesday's-10.7 C-8.528 C-6.0 C1.253 C
Monday's-5.9 C1.056 C4.7 C3.030 C
Sunday's-1.1 C0.335 C3.8 C0.997 C
48-hour Temperature Graph
48-hour Humidity Graph
48-hour Temperature & Humidity Graph
48-hour Light Level Graph
Temperature Statistics

OAT - Data - Wind
Current Time: 2018-02-17 19:33:22 AT
© 2018 wetmore.ca